Time;durP1;ratioP1;P1;durP2;ratioP2;P2;SDS_P1;SDS_P2;PMS_P1;PMS_P2;Temp;Humidity;BMP_temperature;BMP_pressure;BME280_temperature;BME280_humidity;BME280_pressure;Samples;Min_cycle;Max_cycle;Signal;HPM_P1;HPM_P2
2021/03/22 00:01:17;;;;;;;1.13;0.63;;;4.10;76.40;;;;;;5034743;28;20029;-73
2021/03/22 00:03:43;;;;;;;1.60;0.80;;;4.10;76.90;;;;;;5039187;28;20022;-73
2021/03/22 00:06:08;;;;;;;1.30;0.85;;;4.10;75.40;;;;;;5045421;28;20047;-73
2021/03/22 00:08:34;;;;;;;6.47;1.05;;;4.10;77.10;;;;;;5047197;28;20025;-73
2021/03/22 00:11:03;;;;;;;2.28;0.88;;;4.10;76.30;;;;;;5036243;28;20029;-73
2021/03/22 00:13:31;;;;;;;2.65;1.00;;;4.20;74.20;;;;;;5043307;28;20029;-74
2021/03/22 00:16:06;;;;;;;3.90;0.68;;;4.20;74.30;;;;;;5043868;28;20546;-74
2021/03/22 00:18:34;;;;;;;3.92;0.90;;;4.20;71.00;;;;;;5055000;28;20029;-73
2021/03/22 00:21:00;;;;;;;1.95;1.15;;;4.40;71.30;;;;;;5045363;28;20033;-73
2021/03/22 00:23:26;;;;;;;2.97;0.80;;;4.40;71.30;;;;;;5044672;28;20211;-73
2021/03/22 00:25:52;;;;;;;3.40;0.75;;;4.40;71.50;;;;;;5043797;28;20028;-73
2021/03/22 00:28:20;;;;;;;2.13;0.60;;;4.40;70.40;;;;;;5046864;28;20388;-73
2021/03/22 00:30:47;;;;;;;2.85;0.68;;;4.40;69.60;;;;;;5049149;28;20124;-73
2021/03/22 00:33:14;;;;;;;2.28;0.70;;;4.50;68.90;;;;;;5045712;28;20549;-73
2021/03/22 00:35:39;;;;;;;1.65;0.85;;;4.60;68.50;;;;;;5039120;28;20384;-73
2021/03/22 00:38:06;;;;;;;3.83;1.00;;;4.50;69.50;;;;;;5035618;28;20029;-74
2021/03/22 00:40:37;;;;;;;2.40;0.90;;;4.50;69.80;;;;;;5045874;28;20025;-73
2021/03/22 00:43:02;;;;;;;1.33;0.73;;;4.50;70.80;;;;;;5041792;28;20031;-73
2021/03/22 00:45:28;;;;;;;2.67;0.93;;;4.40;71.10;;;;;;5045335;28;20021;-72
2021/03/22 00:47:57;;;;;;;3.13;1.00;;;4.50;70.20;;;;;;5043174;28;20076;-72
2021/03/22 00:50:32;;;;;;;1.38;0.80;;;4.40;71.00;;;;;;5044517;28;20029;-73
2021/03/22 00:52:58;;;;;;;1.13;0.75;;;4.30;71.40;;;;;;5046940;28;20053;-73
2021/03/22 00:55:25;;;;;;;0.63;0.63;;;4.30;72.70;;;;;;5047642;28;20039;-73
2021/03/22 00:57:51;;;;;;;2.90;1.00;;;4.30;71.90;;;;;;5030248;28;20476;-72
2021/03/22 01:00:30;;;;;;;2.30;0.98;;;4.40;71.50;;;;;;5027448;28;20040;-73
2021/03/22 01:02:57;;;;;;;5.60;1.05;;;4.40;72.20;;;;;;5044627;28;20033;-73
2021/03/22 01:05:23;;;;;;;6.95;1.05;;;4.40;73.10;;;;;;5043610;28;20025;-73
2021/03/22 01:07:50;;;;;;;2.20;1.10;;;4.40;72.50;;;;;;5045080;28;20032;-72
2021/03/22 01:10:41;;;;;;;2.00;1.02;;;4.40;72.00;;;;;;5047594;28;20021;-73
2021/03/22 01:13:11;;;;;;;7.82;1.65;;;4.40;72.10;;;;;;5043135;28;20162;-73
2021/03/22 01:15:37;;;;;;;3.65;1.50;;;4.50;72.00;;;;;;5044595;28;20100;-73
2021/03/22 01:18:03;;;;;;;3.95;1.70;;;4.40;72.70;;;;;;5046028;28;20025;-73
2021/03/22 01:20:42;;;;;;;2.72;1.30;;;4.40;72.90;;;;;;5046667;28;20094;-73
2021/03/22 01:23:08;;;;;;;6.88;1.65;;;4.40;73.40;;;;;;5028324;28;20440;-73
2021/03/22 01:25:35;;;;;;;3.58;1.50;;;4.40;72.80;;;;;;5039093;28;20021;-73
2021/03/22 01:28:02;;;;;;;4.95;1.50;;;4.30;73.20;;;;;;5040514;28;20128;-72
2021/03/22 01:30:37;;;;;;;3.13;1.73;;;4.40;72.80;;;;;;5047260;28;20033;-72
2021/03/22 01:33:05;;;;;;;3.95;1.52;;;4.40;72.80;;;;;;5038323;28;20033;-73
2021/03/22 01:35:30;;;;;;;5.10;1.90;;;4.40;73.00;;;;;;5044999;28;20028;-72
2021/03/22 01:37:56;;;;;;;6.97;1.85;;;4.30;74.20;;;;;;5041597;28;20033;-73
2021/03/22 01:40:46;;;;;;;7.15;1.70;;;4.40;73.10;;;;;;5038753;28;20030;-73
2021/03/22 01:43:23;;;;;;;5.35;1.40;;;4.30;73.90;;;;;;5041320;28;20048;-73
2021/03/22 01:45:49;;;;;;;7.57;1.95;;;4.20;74.40;;;;;;5035687;28;20108;-73
2021/03/22 01:48:14;;;;;;;6.68;1.77;;;4.10;74.60;;;;;;5040457;28;20120;-73
2021/03/22 01:50:40;;;;;;;7.63;1.65;;;4.20;75.30;;;;;;5046985;28;20387;-73
2021/03/22 01:53:07;;;;;;;5.25;1.48;;;4.10;75.10;;;;;;5037980;28;20565;-72
2021/03/22 01:55:32;;;;;;;3.13;1.42;;;4.20;75.70;;;;;;5061680;28;20029;-73
2021/03/22 01:57:58;;;;;;;3.58;1.42;;;4.20;75.10;;;;;;5067866;28;20056;-73
2021/03/22 02:00:28;;;;;;;3.03;1.17;;;4.20;75.70;;;;;;5057685;28;20062;-73
2021/03/22 02:03:05;;;;;;;3.83;1.63;;;4.20;75.70;;;;;;5070611;28;20052;-72
2021/03/22 02:05:31;;;;;;;3.90;1.60;;;4.10;76.60;;;;;;5068275;28;20074;-73
2021/03/22 02:08:03;;;;;;;3.28;1.05;;;4.10;76.80;;;;;;5067670;28;20036;-73
2021/03/22 02:10:29;;;;;;;3.53;1.30;;;4.10;77.50;;;;;;5070349;28;20059;-73
2021/03/22 02:12:54;;;;;;;4.22;1.67;;;4.10;77.50;;;;;;5070642;28;20059;-72
2021/03/22 02:15:20;;;;;;;5.53;1.48;;;4.10;77.60;;;;;;5068320;28;20041;-73
2021/03/22 02:18:02;;;;;;;4.93;1.45;;;4.20;76.80;;;;;;5067339;28;20055;-73
2021/03/22 02:20:39;;;;;;;4.00;1.40;;;4.20;78.10;;;;;;5069248;28;20029;-73
2021/03/22 02:23:29;;;;;;;5.15;1.48;;;4.30;77.10;;;;;;5058164;28;20119;-72
2021/03/22 02:26:04;;;;;;;2.25;1.23;;;4.20;78.20;;;;;;5068695;28;20483;-73
2021/03/22 02:28:48;;;;;;;7.15;1.48;;;4.20;78.50;;;;;;5059707;28;20031;-73
2021/03/22 02:32:11;;;;;;;8.32;1.92;;;4.30;78.50;;;;;;5065053;28;20029;-73
2021/03/22 02:34:43;;;;;;;3.75;1.20;;;4.30;78.90;;;;;;4967965;28;20041;-73
2021/03/22 02:37:25;;;;;;;5.57;1.60;;;4.30;78.80;;;;;;4958442;28;20302;-73
2021/03/22 02:40:04;;;;;;;6.35;1.58;;;4.20;80.00;;;;;;5035074;28;20049;-73
2021/03/22 02:42:31;;;;;;;4.50;1.25;;;4.20;80.10;;;;;;5066065;28;20173;-73
2021/03/22 02:44:56;;;;;;;3.90;1.63;;;4.10;81.20;;;;;;5052441;28;20052;-73
2021/03/22 02:47:48;;;;;;;9.23;2.13;;;4.00;82.20;;;;;;5059327;28;20020;-72
2021/03/22 02:50:18;;;;;;;6.90;1.63;;;3.90;83.50;;;;;;5063292;28;20067;-73
2021/03/22 02:53:00;;;;;;;9.32;2.22;;;4.00;83.70;;;;;;5068238;28;20166;-72
2021/03/22 02:55:54;;;;;;;10.43;2.28;;;4.00;83.70;;;;;;5058210;28;20041;-73
2021/03/22 02:58:25;;;;;;;4.18;1.50;;;4.00;84.40;;;;;;5055754;28;20530;-73
2021/03/22 03:01:10;;;;;;;8.45;1.65;;;4.00;85.30;;;;;;5065207;28;20100;-72
2021/03/22 03:03:37;;;;;;;10.43;1.60;;;4.00;85.40;;;;;;5060312;28;20074;-74
2021/03/22 03:06:02;;;;;;;5.97;1.52;;;3.90;86.30;;;;;;5062878;28;20035;-73
2021/03/22 03:08:38;;;;;;;2.80;1.20;;;3.80;86.90;;;;;;5066267;28;20441;-73
2021/03/22 03:11:04;;;;;;;7.47;1.80;;;3.70;88.50;;;;;;5065964;28;20040;-73
2021/03/22 03:13:30;;;;;;;3.75;1.35;;;3.70;88.50;;;;;;5067045;28;20478;-72
2021/03/22 03:15:56;;;;;;;10.05;1.75;;;3.80;87.90;;;;;;5062306;28;20033;-72
2021/03/22 03:18:21;;;;;;;7.70;1.45;;;3.70;88.80;;;;;;5072356;28;20086;-73
2021/03/22 03:20:47;;;;;;;5.55;1.73;;;3.70;89.30;;;;;;5068853;28;20035;-73
2021/03/22 03:23:13;;;;;;;7.72;1.67;;;3.60;90.40;;;;;;5061166;28;20101;-72
2021/03/22 03:25:39;;;;;;;7.90;1.90;;;3.60;90.30;;;;;;5060995;28;20044;-73
2021/03/22 03:28:05;;;;;;;6.35;2.50;;;3.60;90.50;;;;;;5068527;28;20025;-73
2021/03/22 03:30:35;;;;;;;5.65;1.80;;;3.40;90.80;;;;;;5069644;28;20131;-73
2021/03/22 03:33:01;;;;;;;4.68;1.50;;;3.30;91.20;;;;;;5066072;28;20035;-74
2021/03/22 03:35:29;;;;;;;5.30;1.60;;;3.20;91.80;;;;;;5063025;28;20514;-73
2021/03/22 03:37:56;;;;;;;6.78;2.13;;;3.20;92.10;;;;;;5059401;28;20024;-73
2021/03/22 03:40:26;;;;;;;4.82;1.27;;;3.20;92.30;;;;;;5068394;28;20024;-73
2021/03/22 03:42:52;;;;;;;4.35;1.38;;;3.30;92.80;;;;;;5066381;28;20036;-72
2021/03/22 03:45:20;;;;;;;7.78;1.65;;;3.30;93.00;;;;;;5063157;28;20096;-72
2021/03/22 03:47:46;;;;;;;2.70;1.35;;;3.30;92.70;;;;;;5064324;28;20595;-73
2021/03/22 03:50:16;;;;;;;9.82;1.67;;;3.30;92.70;;;;;;5068774;28;20021;-73
2021/03/22 03:52:42;;;;;;;9.10;2.45;;;3.20;92.70;;;;;;5063425;28;20047;-73
2021/03/22 03:55:08;;;;;;;5.47;1.33;;;3.10;93.00;;;;;;5052927;28;20028;-72
2021/03/22 03:57:34;;;;;;;9.57;2.15;;;3.00;93.40;;;;;;5065232;28;20044;-73
2021/03/22 03:59:59;;;;;;;2.85;1.48;;;3.00;93.90;;;;;;5066118;28;20024;-73
2021/03/22 04:02:25;;;;;;;5.65;2.00;;;3.10;93.80;;;;;;5062996;28;20047;-73
2021/03/22 04:04:51;;;;;;;4.53;1.42;;;3.00;93.60;;;;;;5060678;28;20487;-73
2021/03/22 04:07:16;;;;;;;11.82;1.40;;;2.90;93.80;;;;;;5066572;28;20505;-72
2021/03/22 04:09:42;;;;;;;6.75;1.17;;;2.90;94.10;;;;;;5068254;28;20028;-73
2021/03/22 04:12:08;;;;;;;4.40;1.77;;;2.90;94.50;;;;;;5061796;28;20071;-73
2021/03/22 04:14:34;;;;;;;6.18;1.50;;;2.70;95.30;;;;;;5049449;28;20025;-73
2021/03/22 04:16:59;;;;;;;7.15;1.80;;;2.80;95.80;;;;;;5057289;28;20024;-73
2021/03/22 04:19:25;;;;;;;4.45;1.73;;;3.00;95.90;;;;;;5057813;28;20040;-73
2021/03/22 04:21:51;;;;;;;12.77;2.58;;;3.00;95.60;;;;;;5063885;28;20029;-73
2021/03/22 04:24:17;;;;;;;4.10;1.50;;;3.00;95.50;;;;;;5055172;28;20040;-73
2021/03/22 04:26:44;;;;;;;7.80;1.90;;;2.90;95.70;;;;;;5059162;28;20119;-73
2021/03/22 04:29:10;;;;;;;7.20;1.60;;;2.80;95.80;;;;;;5066922;28;20112;-73
2021/03/22 04:31:36;;;;;;;15.35;1.83;;;2.80;96.30;;;;;;5061803;28;20075;-73
2021/03/22 04:34:03;;;;;;;5.78;2.17;;;2.90;96.50;;;;;;5059712;28;20029;-73
2021/03/22 04:36:33;;;;;;;3.15;1.45;;;2.80;95.80;;;;;;5065291;28;20028;-73
2021/03/22 04:38:59;;;;;;;7.30;1.77;;;2.70;96.70;;;;;;5062562;28;20086;-73
2021/03/22 04:41:25;;;;;;;8.50;2.58;;;2.60;97.30;;;;;;5058190;28;20032;-72
2021/03/22 04:43:51;;;;;;;12.10;2.53;;;2.70;97.50;;;;;;5062398;28;20077;-72
2021/03/22 04:46:18;;;;;;;12.43;3.17;;;2.70;97.80;;;;;;5059736;28;20055;-73
2021/03/22 04:48:43;;;;;;;9.23;1.85;;;2.70;97.70;;;;;;5063640;28;20615;-73
2021/03/22 04:51:09;;;;;;;8.57;2.20;;;2.60;98.30;;;;;;5065742;28;20052;-72
2021/03/22 04:53:34;;;;;;;10.52;2.00;;;2.70;98.40;;;;;;5059316;28;20020;-73
2021/03/22 04:56:00;;;;;;;9.45;2.33;;;2.70;98.70;;;;;;5059103;28;20039;-73
2021/03/22 04:58:26;;;;;;;6.55;2.40;;;2.60;98.60;;;;;;5061389;28;20036;-73
2021/03/22 05:00:51;;;;;;;3.45;1.58;;;2.50;99.80;;;;;;5066401;28;20040;-73
2021/03/22 05:03:19;;;;;;;5.18;2.15;;;2.50;99.50;;;;;;5064064;28;20032;-73
2021/03/22 05:05:45;;;;;;;7.72;2.30;;;2.60;99.40;;;;;;5058216;28;20032;-72
2021/03/22 05:08:14;;;;;;;9.82;2.40;;;2.60;99.00;;;;;;5067701;28;20025;-72
2021/03/22 05:10:43;;;;;;;6.13;1.90;;;2.60;99.80;;;;;;5064515;28;20491;-72
2021/03/22 05:13:10;;;;;;;4.57;1.80;;;2.50;99.50;;;;;;5061562;28;20074;-73
2021/03/22 05:15:37;;;;;;;5.07;1.95;;;2.50;99.90;;;;;;5064579;28;20115;-73
2021/03/22 05:18:04;;;;;;;10.38;2.38;;;2.40;99.90;;;;;;5066344;28;20532;-73
2021/03/22 05:20:35;;;;;;;5.32;2.10;;;2.50;99.90;;;;;;5065573;28;20032;-73
2021/03/22 05:23:05;;;;;;;7.55;1.95;;;2.50;99.90;;;;;;5064956;28;20032;-73
2021/03/22 05:25:30;;;;;;;9.25;2.20;;;2.40;99.90;;;;;;5062571;28;20031;-73
2021/03/22 05:27:56;;;;;;;9.15;1.80;;;2.40;99.90;;;;;;5072694;28;20065;-73
2021/03/22 05:30:22;;;;;;;7.88;1.98;;;2.40;99.90;;;;;;5054897;28;20060;-73
2021/03/22 05:32:47;;;;;;;7.80;1.90;;;2.50;99.90;;;;;;5060041;28;20073;-73
2021/03/22 05:35:18;;;;;;;8.50;2.30;;;2.50;99.90;;;;;;5070288;28;20032;-73
2021/03/22 05:37:44;;;;;;;7.45;1.90;;;2.60;99.90;;;;;;5065017;28;20051;-73
2021/03/22 05:40:18;;;;;;;8.90;2.30;;;2.60;99.90;;;;;;5057807;28;20047;-73
2021/03/22 05:42:50;;;;;;;8.75;2.10;;;2.60;99.90;;;;;;5068529;28;20025;-73
2021/03/22 05:45:58;;;;;;;11.95;2.05;;;2.70;99.90;;;;;;5070431;28;20028;-74
2021/03/22 05:48:42;;;;;;;9.27;1.88;;;2.80;99.90;;;;;;5041114;28;20325;-73
2021/03/22 05:51:17;;;;;;;10.48;2.17;;;2.90;99.90;;;;;;5068770;28;20033;-72
2021/03/22 05:54:03;;;;;;;12.00;2.42;;;2.80;99.90;;;;;;5070948;28;20127;-73
2021/03/22 05:56:53;;;;;;;9.57;2.30;;;2.90;99.90;;;;;;5070522;28;20483;-74
2021/03/22 05:59:33;;;;;;;9.25;2.40;;;3.00;99.90;;;;;;5065002;28;20414;-73
2021/03/22 06:02:14;;;;;;;9.35;2.30;;;3.00;99.90;;;;;;5068495;28;20060;-73
2021/03/22 06:04:49;;;;;;;4.93;2.00;;;3.00;99.90;;;;;;5064795;28;20024;-73
2021/03/22 06:07:18;;;;;;;10.25;2.10;;;3.00;99.90;;;;;;5062640;28;20020;-73
2021/03/22 06:09:50;;;;;;;9.68;2.55;;;3.00;99.90;;;;;;5064035;28;20020;-73
2021/03/22 06:12:34;;;;;;;9.52;1.95;;;3.10;99.90;;;;;;5058017;28;20554;-73
2021/03/22 06:15:18;;;;;;;4.68;2.15;;;3.10;99.90;;;;;;5069765;28;20028;-73
2021/03/22 06:17:49;;;;;;;4.70;1.85;;;3.10;99.90;;;;;;5072529;28;20033;-73
2021/03/22 06:20:32;;;;;;;9.35;2.03;;;3.10;99.90;;;;;;5050792;28;20031;-73
2021/03/22 06:23:06;;;;;;;4.57;2.05;;;3.20;99.90;;;;;;5068840;28;20126;-73
2021/03/22 06:25:35;;;;;;;8.20;2.03;;;3.30;99.90;;;;;;5059091;28;20115;-72
2021/03/22 06:28:23;;;;;;;8.10;2.40;;;3.30;99.90;;;;;;5062081;28;20020;-74
2021/03/22 06:31:09;;;;;;;9.27;2.50;;;3.40;99.90;;;;;;5065875;28;20032;-72
2021/03/22 06:33:54;;;;;;;9.32;2.22;;;3.40;99.90;;;;;;5061666;28;20025;-72
2021/03/22 06:36:24;;;;;;;6.00;2.15;;;3.40;99.90;;;;;;5053969;28;20060;-73
2021/03/22 06:38:55;;;;;;;12.30;3.20;;;3.50;99.90;;;;;;5068139;28;20406;-73
2021/03/22 06:41:41;;;;;;;8.23;2.20;;;3.60;99.90;;;;;;5063140;28;20027;-73
2021/03/22 06:44:15;;;;;;;12.15;2.90;;;3.50;99.90;;;;;;5054646;28;20036;-73
2021/03/22 06:46:56;;;;;;;8.13;2.13;;;3.60;99.90;;;;;;5052712;28;20030;-73
2021/03/22 06:49:25;;;;;;;8.23;2.05;;;3.60;99.90;;;;;;5060792;28;20646;-88
2021/03/22 06:52:21;;;;;;;11.80;2.30;;;3.70;99.90;;;;;;5064871;28;20128;-77
2021/03/22 06:54:57;;;;;;;5.57;2.03;;;3.80;99.90;;;;;;5056034;28;20045;-72
2021/03/22 06:57:28;;;;;;;11.90;2.38;;;3.90;99.90;;;;;;5060119;28;20108;-72
2021/03/22 07:00:18;;;;;;;;;;;4.00;99.90;;;;;;5062954;28;20119;-72
2021/03/22 07:03:01;;;;;;;7.07;2.13;;;4.10;99.90;;;;;;5063371;28;19924;-70
2021/03/22 07:05:32;;;;;;;4.32;2.33;;;4.20;99.90;;;;;;5064165;28;20433;-72
2021/03/22 07:08:00;;;;;;;12.47;2.00;;;4.30;99.90;;;;;;5058564;28;20025;-73
2021/03/22 07:10:52;;;;;;;4.93;1.90;;;4.40;99.90;;;;;;5064598;28;20047;-70
2021/03/22 07:13:23;;;;;;;12.18;2.20;;;4.40;99.90;;;;;;5055042;28;20387;-71
2021/03/22 07:15:51;;;;;;;9.82;2.25;;;4.60;99.90;;;;;;5059436;28;20033;-71
2021/03/22 07:18:31;;;;;;;10.38;2.00;;;4.70;99.90;;;;;;5071046;28;20035;-71
2021/03/22 07:20:59;;;;;;;6.35;2.50;;;4.80;99.00;;;;;;5061947;28;20426;-70
2021/03/22 07:23:46;;;;;;;12.07;1.90;;;4.80;99.50;;;;;;5062911;28;20035;-71
2021/03/22 07:26:20;;;;;;;5.80;1.70;;;5.00;97.70;;;;;;5053947;28;20032;-70
2021/03/22 07:29:08;;;;;;;6.00;1.60;;;5.10;96.80;;;;;;5061592;28;20088;-70
2021/03/22 07:31:43;;;;;;;10.75;1.85;;;5.20;96.70;;;;;;5053394;28;20009;-71
2021/03/22 07:34:27;;;;;;;5.38;1.98;;;5.40;96.60;;;;;;5058476;28;20071;-71
2021/03/22 07:37:32;;;;;;;4.82;1.77;;;5.50;95.70;;;;;;5064146;28;20474;-72
2021/03/22 07:40:15;;;;;;;7.07;1.90;;;5.60;95.50;;;;;;4999025;28;20081;-72
2021/03/22 07:42:44;;;;;;;5.07;1.42;;;5.60;94.10;;;;;;5061132;28;20387;-73
2021/03/22 07:45:40;;;;;;;3.70;1.77;;;5.60;93.40;;;;;;5063305;28;20189;-71
2021/03/22 07:48:34;;;;;;;4.43;1.40;;;5.70;93.00;;;;;;5060299;28;20111;-71
2021/03/22 07:51:21;;;;;;;5.00;1.70;;;5.90;92.30;;;;;;5060189;28;20670;-70
2021/03/22 07:54:04;;;;;;;5.30;1.40;;;5.90;91.20;;;;;;5049060;28;20210;-71
2021/03/22 07:56:56;;;;;;;7.28;1.95;;;6.00;89.80;;;;;;5047003;28;20025;-71
2021/03/22 07:59:47;;;;;;;8.40;1.65;;;6.00;90.30;;;;;;5043422;28;20143;-69
2021/03/22 08:02:18;;;;;;;5.63;1.40;;;6.00;90.10;;;;;;5025661;28;20028;-72
2021/03/22 08:04:57;;;;;;;7.82;1.65;;;6.10;88.50;;;;;;5036768;28;20447;-72
2021/03/22 08:07:38;;;;;;;3.08;1.65;;;6.10;89.10;;;;;;5042453;28;20063;-73
2021/03/22 08:10:15;;;;;;;3.58;1.33;;;6.10;88.10;;;;;;5040666;28;20037;-72
2021/03/22 08:12:51;;;;;;;3.05;1.15;;;6.20;87.20;;;;;;5041170;28;20713;-73
2021/03/22 08:15:46;;;;;;;5.97;1.40;;;6.30;85.50;;;;;;5038265;28;20032;-73
2021/03/22 08:18:26;;;;;;;5.68;1.63;;;6.40;85.50;;;;;;5034026;28;20832;-74
2021/03/22 08:21:10;;;;;;;3.15;1.70;;;6.40;82.90;;;;;;5036029;28;20025;-73
2021/03/22 08:23:45;;;;;;;4.60;1.48;;;6.40;81.80;;;;;;5042058;28;20087;-72
2021/03/22 08:26:22;;;;;;;5.28;1.52;;;6.50;83.20;;;;;;5039494;28;20059;-72
2021/03/22 08:29:11;;;;;;;4.10;1.65;;;6.50;80.60;;;;;;5024109;28;20033;-70
2021/03/22 08:31:50;;;;;;;7.45;1.80;;;6.70;81.40;;;;;;5031589;28;20068;-70
2021/03/22 08:34:20;;;;;;;6.75;1.33;;;6.70;80.40;;;;;;5032718;28;20029;-70
2021/03/22 08:37:36;;;;;;;5.00;1.20;;;6.80;80.00;;;;;;5028249;28;20053;-72
2021/03/22 08:40:18;;;;;;;3.53;1.30;;;6.90;77.40;;;;;;5025012;28;20037;-71
2021/03/22 08:43:03;;;;;;;6.68;1.65;;;7.00;77.20;;;;;;5042528;28;20100;-71
2021/03/22 08:45:49;;;;;;;10.98;1.80;;;7.10;77.60;;;;;;5038731;28;20479;-71
2021/03/22 08:48:23;;;;;;;8.32;1.40;;;7.30;75.90;;;;;;5038461;28;20178;-70
2021/03/22 08:50:51;;;;;;;8.57;1.40;;;7.40;74.60;;;;;;5040046;28;20066;-71
2021/03/22 08:53:19;;;;;;;10.93;1.38;;;7.50;75.30;;;;;;5032082;28;20507;-71
2021/03/22 08:55:53;;;;;;;5.60;1.75;;;7.70;72.20;;;;;;5058983;28;20478;-71
2021/03/22 08:58:39;;;;;;;2.97;1.17;;;7.70;72.00;;;;;;5059422;28;20047;-71
2021/03/22 09:01:08;;;;;;;5.95;1.20;;;7.90;72.40;;;;;;5060144;28;20032;-71
2021/03/22 09:03:39;;;;;;;3.45;1.13;;;8.00;71.30;;;;;;5062453;28;20100;-71
2021/03/22 09:06:17;;;;;;;3.88;1.20;;;8.00;71.40;;;;;;5058721;28;20806;-71
2021/03/22 09:08:53;;;;;;;4.47;1.40;;;8.10;70.50;;;;;;5059532;28;20032;-71
2021/03/22 09:11:27;;;;;;;4.57;1.17;;;8.10;69.00;;;;;;5059065;28;20051;-71
2021/03/22 09:13:59;;;;;;;7.95;1.40;;;8.10;68.30;;;;;;5050726;28;20045;-71
2021/03/22 09:16:25;;;;;;;;;;;8.10;68.70;;;;;;5053828;28;20028;-71
2021/03/22 09:19:13;;;;;;;5.93;1.20;;;8.10;67.20;;;;;;5057922;28;20323;-71
2021/03/22 09:21:44;;;;;;;3.75;1.10;;;8.20;69.70;;;;;;5054764;28;20063;-71
2021/03/22 09:24:41;;;;;;;3.63;1.30;;;8.20;68.30;;;;;;5057541;28;20024;-71
2021/03/22 09:27:22;;;;;;;5.03;1.20;;;8.10;68.90;;;;;;5061106;28;20042;-71
2021/03/22 09:29:50;;;;;;;4.30;0.98;;;8.30;68.30;;;;;;5061752;28;20524;-71
2021/03/22 09:35:13;;;;;;;3.65;1.30;;;8.50;66.90;;;;;;5056680;28;20040;-71
2021/03/22 09:37:54;;;;;;;6.10;2.22;;;8.50;65.30;;;;;;5061593;28;20715;-71
2021/03/22 09:40:20;;;;;;;;;;;8.70;64.60;;;;;;5061360;28;20028;-71
2021/03/22 09:43:08;;;;;;;3.47;1.00;;;8.80;64.40;;;;;;5057956;28;20363;-71
2021/03/22 09:45:56;;;;;;;6.28;0.90;;;8.80;62.50;;;;;;5054902;28;20021;-71
2021/03/22 09:48:29;;;;;;;3.78;1.13;;;8.90;61.00;;;;;;5056832;28;20087;-71
2021/03/22 09:51:02;;;;;;;2.13;0.93;;;9.00;58.30;;;;;;5054047;28;20040;-72
2021/03/22 09:53:53;;;;;;;3.90;0.98;;;9.00;58.90;;;;;;5056999;28;20046;-71
2021/03/22 09:56:32;;;;;;;1.95;1.23;;;9.10;59.90;;;;;;5043125;28;20192;-72
2021/03/22 09:59:33;;;;;;;4.75;1.85;;;9.10;58.30;;;;;;5051784;28;20039;-72
2021/03/22 10:02:00;;;;;;;2.35;1.13;;;9.10;59.20;;;;;;5060367;28;20394;-72
2021/03/22 10:04:31;;;;;;;4.63;1.33;;;9.00;60.10;;;;;;5061491;28;20024;-73
2021/03/22 10:07:18;;;;;;;3.78;0.73;;;9.20;61.00;;;;;;5058211;28;20035;-73
2021/03/22 10:10:01;;;;;;;5.78;0.95;;;9.30;60.30;;;;;;5057885;28;20659;-73
2021/03/22 10:12:37;;;;;;;3.47;1.42;;;9.50;57.30;;;;;;5059284;28;20024;-72
2021/03/22 10:15:11;;;;;;;3.95;0.93;;;9.60;58.30;;;;;;5062266;28;20029;-72
2021/03/22 10:17:42;;;;;;;1.10;0.60;;;9.70;57.40;;;;;;5063837;28;20048;-72
2021/03/22 10:20:23;;;;;;;19.92;1.23;;;9.80;56.00;;;;;;5062931;28;20025;-72
2021/03/22 10:22:58;;;;;;;1.40;0.60;;;9.90;53.60;;;;;;5064486;28;20517;-71
2021/03/22 10:25:29;;;;;;;8.27;0.80;;;10.10;54.30;;;;;;5061501;28;20147;-71
2021/03/22 10:28:11;;;;;;;6.38;0.80;;;10.20;56.10;;;;;;5058265;28;20024;-71
2021/03/22 10:30:37;;;;;;;5.68;0.80;;;10.40;54.20;;;;;;5058616;28;20037;-72
2021/03/22 10:33:06;;;;;;;2.22;1.02;;;10.50;52.30;;;;;;5057133;28;20028;-72
2021/03/22 10:35:47;;;;;;;1.48;0.55;;;10.50;53.40;;;;;;5057870;28;20409;-72
2021/03/22 10:38:15;;;;;;;;;;;10.60;51.60;;;;;;5059175;28;20024;-71
2021/03/22 10:40:41;;;;;;;6.70;0.85;;;10.80;52.90;;;;;;5063156;28;19913;-72
2021/03/22 10:43:41;;;;;;;0.93;0.60;;;11.00;52.00;;;;;;5061114;28;20027;-72
2021/03/22 10:46:17;;;;;;;0.55;0.35;;;11.10;49.40;;;;;;5062559;28;20571;-72
2021/03/22 10:48:43;;;;;;;1.45;0.52;;;11.10;46.50;;;;;;5065484;28;20025;-71
2021/03/22 10:51:16;;;;;;;3.03;0.85;;;11.30;48.40;;;;;;5061330;28;21663;-72
2021/03/22 10:53:57;;;;;;;0.57;0.50;;;11.50;48.80;;;;;;5053356;28;20760;-72
2021/03/22 10:56:28;;;;;;;1.85;0.68;;;11.50;47.90;;;;;;5062711;28;20035;-72
2021/03/22 10:58:56;;;;;;;1.37;0.50;;;11.70;49.70;;;;;;5060861;28;20040;-72
2021/03/22 11:01:22;;;;;;;3.25;1.10;;;11.80;47.70;;;;;;5057941;28;20240;-72
2021/03/22 11:03:49;;;;;;;2.28;0.75;;;12.10;48.70;;;;;;5060686;28;20053;-72
2021/03/22 11:06:28;;;;;;;1.42;0.52;;;12.30;46.90;;;;;;5059440;28;20032;-72
2021/03/22 11:08:58;;;;;;;1.52;0.70;;;12.50;48.60;;;;;;5052617;28;20033;-71
2021/03/22 11:11:27;;;;;;;4.07;0.90;;;12.70;45.30;;;;;;5056155;28;20029;-71
2021/03/22 11:13:55;;;;;;;0.65;0.55;;;12.80;48.10;;;;;;5056967;28;20037;-71
2021/03/22 11:16:27;;;;;;;1.42;0.73;;;12.90;46.20;;;;;;5058375;28;20043;-72
2021/03/22 11:18:54;;;;;;;1.27;1.02;;;13.20;46.40;;;;;;5057624;28;20028;-71
2021/03/22 11:21:25;;;;;;;2.55;0.70;;;13.40;44.70;;;;;;5063474;28;20039;-71
2021/03/22 11:23:53;;;;;;;3.67;0.98;;;13.50;44.20;;;;;;5062351;28;20028;-71
2021/03/22 11:26:37;;;;;;;5.50;0.70;;;13.70;44.60;;;;;;5065199;28;20032;-72
2021/03/22 11:29:18;;;;;;;3.25;0.60;;;13.90;44.60;;;;;;5059942;28;20024;-71
2021/03/22 11:31:49;;;;;;;7.50;0.80;;;14.10;44.50;;;;;;5061610;28;20033;-72
2021/03/22 11:34:43;;;;;;;3.67;0.70;;;14.30;45.50;;;;;;5058212;28;20111;-71
2021/03/22 11:37:21;;;;;;;1.95;0.75;;;14.50;43.20;;;;;;5058058;28;20105;-72
2021/03/22 11:39:58;;;;;;;1.48;0.75;;;14.80;43.30;;;;;;5057651;28;20032;-71
2021/03/22 11:42:31;;;;;;;2.35;0.68;;;15.00;42.60;;;;;;5061078;28;20138;-71
2021/03/22 11:44:56;;;;;;;1.08;0.75;;;15.40;41.90;;;;;;5054909;28;20051;-71
2021/03/22 11:47:44;;;;;;;1.58;0.73;;;15.90;43.80;;;;;;5061424;28;20416;-71
2021/03/22 11:50:22;;;;;;;3.28;0.70;;;16.30;40.20;;;;;;5041386;28;20527;-73
2021/03/22 11:53:00;;;;;;;2.60;0.65;;;16.60;37.50;;;;;;5064835;28;20048;-73
2021/03/22 11:55:30;;;;;;;3.33;0.80;;;17.00;40.30;;;;;;5056602;28;20442;-71
2021/03/22 11:57:56;;;;;;;0.98;0.55;;;17.30;40.60;;;;;;5026573;28;20055;-71
2021/03/22 12:00:34;;;;;;;1.08;0.60;;;17.60;37.30;;;;;;5060652;28;20135;-72
2021/03/22 12:03:23;;;;;;;1.92;0.50;;;17.80;37.50;;;;;;5052375;28;20021;-73
2021/03/22 12:06:07;;;;;;;1.33;0.70;;;18.00;35.80;;;;;;5063386;28;20033;-72
2021/03/22 12:08:48;;;;;;;1.35;0.70;;;18.30;35.60;;;;;;5058651;28;20017;-72
2021/03/22 12:11:17;;;;;;;1.08;0.68;;;18.60;33.40;;;;;;5049022;28;20507;-73
2021/03/22 12:13:43;;;;;;;3.25;0.70;;;19.00;32.70;;;;;;5060478;28;20432;-73
2021/03/22 12:16:14;;;;;;;2.95;0.70;;;19.10;32.90;;;;;;5061191;28;20060;-72
2021/03/22 12:18:40;;;;;;;1.23;0.77;;;19.30;34.90;;;;;;5078180;28;20106;-73
2021/03/22 12:21:09;;;;;;;2.50;0.70;;;19.60;36.10;;;;;;5062815;28;20044;-73
2021/03/22 12:23:35;;;;;;;2.30;0.90;;;19.80;35.10;;;;;;5065150;28;20020;-73
2021/03/22 12:26:01;;;;;;;2.20;1.15;;;20.00;35.80;;;;;;5058186;28;20016;-73
2021/03/22 12:28:26;;;;;;;1.77;0.73;;;19.70;35.50;;;;;;5064923;28;20379;-72
2021/03/22 12:30:52;;;;;;;3.22;0.80;;;19.90;33.10;;;;;;5045974;28;20043;-72
2021/03/22 12:33:25;;;;;;;2.03;0.80;;;20.30;31.60;;;;;;5065475;28;20020;-72
2021/03/22 12:35:51;;;;;;;0.60;0.60;;;20.60;33.30;;;;;;5057967;28;20033;-73
2021/03/22 12:38:16;;;;;;;1.88;0.68;;;20.70;30.40;;;;;;5057766;28;20109;-73
2021/03/22 12:40:43;;;;;;;0.73;0.55;;;20.70;31.60;;;;;;5064211;28;20071;-73
2021/03/22 12:43:21;;;;;;;1.67;0.70;;;20.60;30.80;;;;;;5062741;28;20074;-73
2021/03/22 12:45:46;;;;;;;2.95;0.70;;;21.00;31.40;;;;;;5064491;28;20031;-73
2021/03/22 12:48:12;;;;;;;1.40;0.90;;;20.60;31.20;;;;;;5062207;28;20032;-73
2021/03/22 12:50:40;;;;;;;2.38;0.70;;;20.50;31.90;;;;;;5061393;28;20032;-73
2021/03/22 12:53:08;;;;;;;1.15;0.80;;;20.70;31.00;;;;;;5056235;28;20078;-73
2021/03/22 12:55:34;;;;;;;1.70;0.77;;;20.20;31.80;;;;;;5059429;28;20028;-73
2021/03/22 12:58:04;;;;;;;2.22;0.50;;;19.40;33.60;;;;;;5059118;28;20024;-73
2021/03/22 13:00:30;;;;;;;1.35;0.73;;;18.50;34.10;;;;;;5065130;28;20053;-73
2021/03/22 13:02:56;;;;;;;1.52;0.80;;;17.80;37.70;;;;;;5051769;28;20024;-73
2021/03/22 13:05:25;;;;;;;1.85;0.80;;;17.30;34.90;;;;;;5060874;28;20016;-72
2021/03/22 13:07:52;;;;;;;0.77;0.60;;;17.10;34.90;;;;;;5060963;28;20025;-73
2021/03/22 13:10:21;;;;;;;2.00;0.98;;;17.00;38.00;;;;;;5062110;28;20059;-72
2021/03/22 13:12:47;;;;;;;1.38;0.70;;;17.00;37.30;;;;;;5058233;28;20104;-73
2021/03/22 13:15:39;;;;;;;2.25;1.05;;;16.80;36.70;;;;;;5058948;28;20163;-73
2021/03/22 13:18:27;;;;;;;0.98;0.60;;;17.00;35.90;;;;;;5065858;28;20021;-72
2021/03/22 13:20:56;;;;;;;5.35;0.70;;;17.20;36.70;;;;;;5064304;28;20395;-73
2021/03/22 13:23:23;;;;;;;1.80;1.00;;;17.60;36.80;;;;;;5067198;28;20237;-73
2021/03/22 13:25:51;;;;;;;2.70;0.85;;;17.70;36.00;;;;;;5059095;28;20028;-73
2021/03/22 13:28:20;;;;;;;1.65;0.90;;;17.80;36.40;;;;;;5058805;28;20090;-73
2021/03/22 13:30:46;;;;;;;5.60;0.95;;;17.80;35.60;;;;;;5062416;28;20037;-73